sensor_id;sensor_type;location;lat;lon;timestamp;P1;durP1;ratioP1;P2;durP2;ratioP2
8887;SDS011;4480;52.370;9.748;2023-03-03T00:01:04;25.38;;;12.50;;
8887;SDS011;4480;52.370;9.748;2023-03-03T00:03:30;24.95;;;11.05;;
8887;SDS011;4480;52.370;9.748;2023-03-03T00:05:59;37.45;;;11.82;;
8887;SDS011;4480;52.370;9.748;2023-03-03T00:08:26;27.52;;;12.50;;
8887;SDS011;4480;52.370;9.748;2023-03-03T00:10:53;37.58;;;11.20;;
8887;SDS011;4480;52.370;9.748;2023-03-03T00:13:21;23.08;;;12.20;;
8887;SDS011;4480;52.370;9.748;2023-03-03T00:15:49;24.08;;;10.20;;
8887;SDS011;4480;52.370;9.748;2023-03-03T00:18:17;24.65;;;11.90;;
8887;SDS011;4480;52.370;9.748;2023-03-03T00:20:48;24.08;;;10.85;;
8887;SDS011;4480;52.370;9.748;2023-03-03T00:23:22;26.85;;;10.65;;
8887;SDS011;4480;52.370;9.748;2023-03-03T00:25:53;20.75;;;10.85;;
8887;SDS011;4480;52.370;9.748;2023-03-03T00:28:24;20.52;;;10.65;;
8887;SDS011;4480;52.370;9.748;2023-03-03T00:30:54;22.08;;;10.25;;
8887;SDS011;4480;52.370;9.748;2023-03-03T00:33:27;17.88;;;9.70;;
8887;SDS011;4480;52.370;9.748;2023-03-03T00:35:56;19.70;;;10.55;;
8887;SDS011;4480;52.370;9.748;2023-03-03T00:38:33;21.88;;;10.85;;
8887;SDS011;4480;52.370;9.748;2023-03-03T00:41:00;23.23;;;10.70;;
8887;SDS011;4480;52.370;9.748;2023-03-03T00:43:34;25.02;;;12.13;;
8887;SDS011;4480;52.370;9.748;2023-03-03T00:46:01;28.65;;;10.25;;
8887;SDS011;4480;52.370;9.748;2023-03-03T00:48:29;27.35;;;10.60;;
8887;SDS011;4480;52.370;9.748;2023-03-03T00:51:09;27.52;;;11.20;;
8887;SDS011;4480;52.370;9.748;2023-03-03T00:53:48;25.30;;;10.95;;
8887;SDS011;4480;52.370;9.748;2023-03-03T00:56:15;16.70;;;9.65;;
8887;SDS011;4480;52.370;9.748;2023-03-03T00:58:42;24.38;;;12.20;;
8887;SDS011;4480;52.370;9.748;2023-03-03T01:01:11;18.67;;;8.52;;
8887;SDS011;4480;52.370;9.748;2023-03-03T01:03:38;17.10;;;8.98;;
8887;SDS011;4480;52.370;9.748;2023-03-03T01:06:05;25.25;;;12.05;;
8887;SDS011;4480;52.370;9.748;2023-03-03T01:08:32;18.35;;;9.38;;
8887;SDS011;4480;52.370;9.748;2023-03-03T01:11:02;17.73;;;10.00;;
8887;SDS011;4480;52.370;9.748;2023-03-03T01:13:32;19.80;;;9.35;;
8887;SDS011;4480;52.370;9.748;2023-03-03T01:16:00;20.63;;;9.93;;
8887;SDS011;4480;52.370;9.748;2023-03-03T01:18:28;19.27;;;9.18;;
8887;SDS011;4480;52.370;9.748;2023-03-03T01:20:56;15.38;;;8.30;;
8887;SDS011;4480;52.370;9.748;2023-03-03T01:23:22;17.85;;;8.98;;
8887;SDS011;4480;52.370;9.748;2023-03-03T01:25:49;20.75;;;9.50;;
8887;SDS011;4480;52.370;9.748;2023-03-03T01:28:17;14.60;;;8.50;;
8887;SDS011;4480;52.370;9.748;2023-03-03T01:30:44;14.75;;;8.20;;
8887;SDS011;4480;52.370;9.748;2023-03-03T01:33:11;18.92;;;8.77;;
8887;SDS011;4480;52.370;9.748;2023-03-03T01:35:41;19.17;;;9.50;;
8887;SDS011;4480;52.370;9.748;2023-03-03T01:38:09;20.35;;;9.65;;
8887;SDS011;4480;52.370;9.748;2023-03-03T01:40:36;13.52;;;8.27;;
8887;SDS011;4480;52.370;9.748;2023-03-03T01:43:03;19.20;;;9.25;;
8887;SDS011;4480;52.370;9.748;2023-03-03T01:45:31;18.02;;;8.98;;
8887;SDS011;4480;52.370;9.748;2023-03-03T01:48:11;10.90;;;7.93;;
8887;SDS011;4480;52.370;9.748;2023-03-03T01:50:43;20.48;;;9.90;;
8887;SDS011;4480;52.370;9.748;2023-03-03T01:53:14;21.60;;;10.65;;
8887;SDS011;4480;52.370;9.748;2023-03-03T01:55:44;20.48;;;10.95;;
8887;SDS011;4480;52.370;9.748;2023-03-03T01:58:13;21.88;;;9.30;;
8887;SDS011;4480;52.370;9.748;2023-03-03T02:00:47;18.42;;;9.65;;
8887;SDS011;4480;52.370;9.748;2023-03-03T02:03:18;23.20;;;9.68;;
8887;SDS011;4480;52.370;9.748;2023-03-03T02:05:47;22.05;;;11.15;;
8887;SDS011;4480;52.370;9.748;2023-03-03T02:08:16;20.92;;;10.40;;
8887;SDS011;4480;52.370;9.748;2023-03-03T02:10:48;20.45;;;10.18;;
8887;SDS011;4480;52.370;9.748;2023-03-03T02:13:16;20.55;;;9.32;;
8887;SDS011;4480;52.370;9.748;2023-03-03T02:15:43;19.45;;;11.02;;
8887;SDS011;4480;52.370;9.748;2023-03-03T02:18:12;19.58;;;10.32;;
8887;SDS011;4480;52.370;9.748;2023-03-03T02:20:45;22.35;;;10.77;;
8887;SDS011;4480;52.370;9.748;2023-03-03T02:23:20;19.33;;;9.52;;
8887;SDS011;4480;52.370;9.748;2023-03-03T02:25:59;21.70;;;10.45;;
8887;SDS011;4480;52.370;9.748;2023-03-03T02:28:31;20.13;;;9.98;;
8887;SDS011;4480;52.370;9.748;2023-03-03T02:30:59;22.77;;;11.10;;
8887;SDS011;4480;52.370;9.748;2023-03-03T02:33:27;20.38;;;9.50;;
8887;SDS011;4480;52.370;9.748;2023-03-03T02:35:54;23.58;;;11.40;;
8887;SDS011;4480;52.370;9.748;2023-03-03T02:38:23;17.65;;;9.25;;
8887;SDS011;4480;52.370;9.748;2023-03-03T02:40:56;23.33;;;10.20;;
8887;SDS011;4480;52.370;9.748;2023-03-03T02:43:31;21.55;;;11.02;;
8887;SDS011;4480;52.370;9.748;2023-03-03T02:46:01;18.80;;;10.38;;
8887;SDS011;4480;52.370;9.748;2023-03-03T02:48:28;19.08;;;11.32;;
8887;SDS011;4480;52.370;9.748;2023-03-03T02:50:55;18.77;;;9.48;;
8887;SDS011;4480;52.370;9.748;2023-03-03T02:53:21;20.25;;;11.00;;
8887;SDS011;4480;52.370;9.748;2023-03-03T02:55:48;21.95;;;10.25;;
8887;SDS011;4480;52.370;9.748;2023-03-03T02:58:16;22.00;;;10.50;;
8887;SDS011;4480;52.370;9.748;2023-03-03T03:00:43;25.58;;;11.45;;
8887;SDS011;4480;52.370;9.748;2023-03-03T03:03:11;19.80;;;10.07;;
8887;SDS011;4480;52.370;9.748;2023-03-03T03:05:38;23.17;;;10.50;;
8887;SDS011;4480;52.370;9.748;2023-03-03T03:08:05;22.10;;;9.23;;
8887;SDS011;4480;52.370;9.748;2023-03-03T03:10:32;18.98;;;11.13;;
8887;SDS011;4480;52.370;9.748;2023-03-03T03:12:58;24.45;;;11.82;;
8887;SDS011;4480;52.370;9.748;2023-03-03T03:15:26;19.75;;;9.45;;
8887;SDS011;4480;52.370;9.748;2023-03-03T03:17:53;20.63;;;10.00;;
8887;SDS011;4480;52.370;9.748;2023-03-03T03:20:20;21.35;;;10.05;;
8887;SDS011;4480;52.370;9.748;2023-03-03T03:22:47;20.33;;;9.90;;
8887;SDS011;4480;52.370;9.748;2023-03-03T03:25:14;19.60;;;11.13;;
8887;SDS011;4480;52.370;9.748;2023-03-03T03:27:40;18.50;;;8.98;;
8887;SDS011;4480;52.370;9.748;2023-03-03T03:30:08;22.45;;;10.15;;
8887;SDS011;4480;52.370;9.748;2023-03-03T03:32:36;19.33;;;9.70;;
8887;SDS011;4480;52.370;9.748;2023-03-03T03:35:03;15.63;;;8.60;;
8887;SDS011;4480;52.370;9.748;2023-03-03T03:37:30;17.15;;;9.20;;
8887;SDS011;4480;52.370;9.748;2023-03-03T03:39:57;22.60;;;9.85;;
8887;SDS011;4480;52.370;9.748;2023-03-03T03:42:24;14.63;;;9.23;;
8887;SDS011;4480;52.370;9.748;2023-03-03T03:44:50;25.77;;;10.57;;
8887;SDS011;4480;52.370;9.748;2023-03-03T03:47:17;25.52;;;10.57;;
8887;SDS011;4480;52.370;9.748;2023-03-03T03:49:45;21.83;;;10.10;;
8887;SDS011;4480;52.370;9.748;2023-03-03T03:52:12;23.98;;;10.45;;
8887;SDS011;4480;52.370;9.748;2023-03-03T03:54:39;19.85;;;9.27;;
8887;SDS011;4480;52.370;9.748;2023-03-03T03:57:06;20.95;;;10.73;;
8887;SDS011;4480;52.370;9.748;2023-03-03T03:59:32;19.23;;;9.73;;
8887;SDS011;4480;52.370;9.748;2023-03-03T04:01:59;25.90;;;10.70;;
8887;SDS011;4480;52.370;9.748;2023-03-03T04:04:26;21.55;;;9.70;;
8887;SDS011;4480;52.370;9.748;2023-03-03T04:06:54;18.90;;;9.63;;
8887;SDS011;4480;52.370;9.748;2023-03-03T04:11:16;23.05;;;11.63;;
8887;SDS011;4480;52.370;9.748;2023-03-03T04:13:43;25.70;;;11.75;;
8887;SDS011;4480;52.370;9.748;2023-03-03T04:16:10;18.48;;;9.65;;
8887;SDS011;4480;52.370;9.748;2023-03-03T04:18:36;20.38;;;10.80;;
8887;SDS011;4480;52.370;9.748;2023-03-03T04:21:03;20.10;;;10.10;;
8887;SDS011;4480;52.370;9.748;2023-03-03T04:23:30;23.33;;;10.88;;
8887;SDS011;4480;52.370;9.748;2023-03-03T04:25:57;24.73;;;11.25;;
8887;SDS011;4480;52.370;9.748;2023-03-03T04:28:25;27.17;;;12.07;;
8887;SDS011;4480;52.370;9.748;2023-03-03T04:30:52;29.27;;;13.50;;
8887;SDS011;4480;52.370;9.748;2023-03-03T04:33:18;24.17;;;11.93;;
8887;SDS011;4480;52.370;9.748;2023-03-03T04:35:45;28.05;;;11.35;;
8887;SDS011;4480;52.370;9.748;2023-03-03T04:38:12;23.08;;;11.70;;
8887;SDS011;4480;52.370;9.748;2023-03-03T04:40:39;26.80;;;12.90;;
8887;SDS011;4480;52.370;9.748;2023-03-03T04:43:06;18.65;;;10.50;;
8887;SDS011;4480;52.370;9.748;2023-03-03T04:45:35;26.85;;;11.15;;
8887;SDS011;4480;52.370;9.748;2023-03-03T04:48:02;27.60;;;12.57;;
8887;SDS011;4480;52.370;9.748;2023-03-03T04:50:29;21.17;;;11.98;;
8887;SDS011;4480;52.370;9.748;2023-03-03T04:52:56;26.85;;;12.20;;
8887;SDS011;4480;52.370;9.748;2023-03-03T04:55:22;19.48;;;11.00;;
8887;SDS011;4480;52.370;9.748;2023-03-03T04:57:49;24.40;;;10.43;;
8887;SDS011;4480;52.370;9.748;2023-03-03T05:00:16;32.22;;;12.73;;
8887;SDS011;4480;52.370;9.748;2023-03-03T05:02:46;23.15;;;11.13;;
8887;SDS011;4480;52.370;9.748;2023-03-03T05:05:13;29.98;;;12.50;;
8887;SDS011;4480;52.370;9.748;2023-03-03T05:07:40;25.60;;;11.70;;
8887;SDS011;4480;52.370;9.748;2023-03-03T05:10:07;24.00;;;11.70;;
8887;SDS011;4480;52.370;9.748;2023-03-03T05:12:34;27.92;;;13.20;;
8887;SDS011;4480;52.370;9.748;2023-03-03T05:15:01;23.48;;;11.15;;
8887;SDS011;4480;52.370;9.748;2023-03-03T05:17:28;21.23;;;11.70;;
8887;SDS011;4480;52.370;9.748;2023-03-03T05:19:56;25.90;;;12.23;;
8887;SDS011;4480;52.370;9.748;2023-03-03T05:22:23;22.73;;;11.93;;
8887;SDS011;4480;52.370;9.748;2023-03-03T05:24:50;24.27;;;12.90;;
8887;SDS011;4480;52.370;9.748;2023-03-03T05:27:17;25.60;;;12.63;;
8887;SDS011;4480;52.370;9.748;2023-03-03T05:29:45;21.60;;;9.90;;
8887;SDS011;4480;52.370;9.748;2023-03-03T05:32:11;22.35;;;10.25;;
8887;SDS011;4480;52.370;9.748;2023-03-03T05:34:38;22.88;;;9.80;;
8887;SDS011;4480;52.370;9.748;2023-03-03T05:37:06;17.75;;;10.20;;
8887;SDS011;4480;52.370;9.748;2023-03-03T05:39:33;21.42;;;9.82;;
8887;SDS011;4480;52.370;9.748;2023-03-03T05:42:00;21.70;;;10.70;;
8887;SDS011;4480;52.370;9.748;2023-03-03T05:44:27;22.35;;;11.20;;
8887;SDS011;4480;52.370;9.748;2023-03-03T05:46:54;24.38;;;10.35;;
8887;SDS011;4480;52.370;9.748;2023-03-03T05:49:23;23.08;;;10.73;;
8887;SDS011;4480;52.370;9.748;2023-03-03T05:51:50;21.08;;;10.82;;
8887;SDS011;4480;52.370;9.748;2023-03-03T05:54:18;22.67;;;10.48;;
8887;SDS011;4480;52.370;9.748;2023-03-03T05:56:45;16.10;;;9.32;;
8887;SDS011;4480;52.370;9.748;2023-03-03T05:59:11;22.85;;;11.63;;
8887;SDS011;4480;52.370;9.748;2023-03-03T06:01:39;21.08;;;10.35;;
8887;SDS011;4480;52.370;9.748;2023-03-03T06:04:06;22.35;;;10.93;;
8887;SDS011;4480;52.370;9.748;2023-03-03T06:06:32;25.45;;;10.20;;
8887;SDS011;4480;52.370;9.748;2023-03-03T06:08:59;22.33;;;10.57;;
8887;SDS011;4480;52.370;9.748;2023-03-03T06:11:27;23.20;;;11.57;;
8887;SDS011;4480;52.370;9.748;2023-03-03T06:13:54;30.02;;;12.98;;
8887;SDS011;4480;52.370;9.748;2023-03-03T06:16:21;25.27;;;11.57;;
8887;SDS011;4480;52.370;9.748;2023-03-03T06:18:48;19.85;;;10.43;;
8887;SDS011;4480;52.370;9.748;2023-03-03T06:21:15;24.58;;;10.23;;
8887;SDS011;4480;52.370;9.748;2023-03-03T06:23:41;22.38;;;11.60;;
8887;SDS011;4480;52.370;9.748;2023-03-03T06:26:08;20.83;;;11.80;;
8887;SDS011;4480;52.370;9.748;2023-03-03T06:28:36;22.02;;;10.98;;
8887;SDS011;4480;52.370;9.748;2023-03-03T06:31:03;26.42;;;11.60;;
8887;SDS011;4480;52.370;9.748;2023-03-03T06:33:30;23.90;;;11.30;;
8887;SDS011;4480;52.370;9.748;2023-03-03T06:35:57;23.58;;;12.00;;
8887;SDS011;4480;52.370;9.748;2023-03-03T06:38:23;27.75;;;11.90;;
8887;SDS011;4480;52.370;9.748;2023-03-03T06:40:50;31.75;;;13.82;;
8887;SDS011;4480;52.370;9.748;2023-03-03T06:43:17;28.73;;;14.25;;
8887;SDS011;4480;52.370;9.748;2023-03-03T06:45:45;31.33;;;13.25;;
8887;SDS011;4480;52.370;9.748;2023-03-03T06:48:12;29.75;;;14.80;;
8887;SDS011;4480;52.370;9.748;2023-03-03T06:50:39;30.10;;;13.85;;
8887;SDS011;4480;52.370;9.748;2023-03-03T06:53:09;30.27;;;13.88;;
8887;SDS011;4480;52.370;9.748;2023-03-03T06:55:37;26.05;;;12.45;;
8887;SDS011;4480;52.370;9.748;2023-03-03T06:58:07;27.50;;;13.27;;
8887;SDS011;4480;52.370;9.748;2023-03-03T07:00:37;26.88;;;13.32;;
8887;SDS011;4480;52.370;9.748;2023-03-03T07:03:11;26.90;;;13.00;;
8887;SDS011;4480;52.370;9.748;2023-03-03T07:05:40;22.30;;;10.88;;
8887;SDS011;4480;52.370;9.748;2023-03-03T07:08:09;24.33;;;13.50;;
8887;SDS011;4480;52.370;9.748;2023-03-03T07:10:39;26.38;;;12.82;;
8887;SDS011;4480;52.370;9.748;2023-03-03T07:13:14;24.65;;;12.55;;
8887;SDS011;4480;52.370;9.748;2023-03-03T07:15:43;22.70;;;11.93;;
8887;SDS011;4480;52.370;9.748;2023-03-03T07:18:20;28.40;;;14.00;;
8887;SDS011;4480;52.370;9.748;2023-03-03T07:20:56;22.67;;;12.20;;
8887;SDS011;4480;52.370;9.748;2023-03-03T07:23:25;25.17;;;14.23;;
8887;SDS011;4480;52.370;9.748;2023-03-03T07:25:57;20.48;;;11.73;;
8887;SDS011;4480;52.370;9.748;2023-03-03T07:28:25;28.55;;;15.02;;
8887;SDS011;4480;52.370;9.748;2023-03-03T07:30:53;32.20;;;14.50;;
8887;SDS011;4480;52.370;9.748;2023-03-03T07:33:25;28.50;;;16.15;;
8887;SDS011;4480;52.370;9.748;2023-03-03T07:35:53;26.27;;;14.48;;
8887;SDS011;4480;52.370;9.748;2023-03-03T07:38:28;32.08;;;15.70;;
8887;SDS011;4480;52.370;9.748;2023-03-03T07:41:00;28.70;;;15.10;;
8887;SDS011;4480;52.370;9.748;2023-03-03T07:43:29;24.98;;;12.13;;
8887;SDS011;4480;52.370;9.748;2023-03-03T07:46:02;21.33;;;11.30;;
8887;SDS011;4480;52.370;9.748;2023-03-03T07:48:45;25.05;;;13.57;;
8887;SDS011;4480;52.370;9.748;2023-03-03T07:51:12;24.17;;;11.25;;
8887;SDS011;4480;52.370;9.748;2023-03-03T07:53:46;21.50;;;12.63;;
8887;SDS011;4480;52.370;9.748;2023-03-03T07:56:19;20.17;;;11.48;;
8887;SDS011;4480;52.370;9.748;2023-03-03T07:58:53;22.13;;;12.63;;
8887;SDS011;4480;52.370;9.748;2023-03-03T08:01:30;20.75;;;11.82;;
8887;SDS011;4480;52.370;9.748;2023-03-03T08:04:09;18.38;;;10.38;;
8887;SDS011;4480;52.370;9.748;2023-03-03T08:06:54;20.27;;;11.13;;
8887;SDS011;4480;52.370;9.748;2023-03-03T08:09:38;18.52;;;9.75;;
8887;SDS011;4480;52.370;9.748;2023-03-03T08:15:15;21.40;;;10.57;;
8887;SDS011;4480;52.370;9.748;2023-03-03T08:17:47;26.60;;;12.07;;
8887;SDS011;4480;52.370;9.748;2023-03-03T08:23:12;21.88;;;12.35;;
8887;SDS011;4480;52.370;9.748;2023-03-03T08:25:39;18.55;;;10.52;;
8887;SDS011;4480;52.370;9.748;2023-03-03T08:28:07;21.73;;;11.68;;
8887;SDS011;4480;52.370;9.748;2023-03-03T08:30:34;25.77;;;13.32;;
8887;SDS011;4480;52.370;9.748;2023-03-03T08:33:01;21.58;;;13.82;;
8887;SDS011;4480;52.370;9.748;2023-03-03T08:35:27;32.20;;;16.52;;
8887;SDS011;4480;52.370;9.748;2023-03-03T08:37:56;30.75;;;14.95;;
8887;SDS011;4480;52.370;9.748;2023-03-03T08:40:22;36.45;;;17.30;;
8887;SDS011;4480;52.370;9.748;2023-03-03T08:42:49;33.00;;;17.58;;
8887;SDS011;4480;52.370;9.748;2023-03-03T08:45:16;30.80;;;17.20;;
8887;SDS011;4480;52.370;9.748;2023-03-03T08:47:43;33.30;;;17.90;;
8887;SDS011;4480;52.370;9.748;2023-03-03T08:50:10;26.83;;;15.82;;
8887;SDS011;4480;52.370;9.748;2023-03-03T08:52:38;27.67;;;15.30;;
8887;SDS011;4480;52.370;9.748;2023-03-03T08:55:06;28.88;;;15.40;;
8887;SDS011;4480;52.370;9.748;2023-03-03T08:57:33;25.65;;;13.05;;
8887;SDS011;4480;52.370;9.748;2023-03-03T09:00:00;23.92;;;16.30;;
8887;SDS011;4480;52.370;9.748;2023-03-03T09:02:27;32.10;;;16.65;;
8887;SDS011;4480;52.370;9.748;2023-03-03T09:04:54;35.33;;;17.52;;
8887;SDS011;4480;52.370;9.748;2023-03-03T09:07:20;39.10;;;18.65;;
8887;SDS011;4480;52.370;9.748;2023-03-03T09:09:47;37.28;;;20.15;;
8887;SDS011;4480;52.370;9.748;2023-03-03T09:12:16;33.58;;;17.73;;
8887;SDS011;4480;52.370;9.748;2023-03-03T09:14:44;35.58;;;18.92;;
8887;SDS011;4480;52.370;9.748;2023-03-03T09:17:20;33.00;;;16.67;;
8887;SDS011;4480;52.370;9.748;2023-03-03T09:19:50;37.70;;;18.98;;
8887;SDS011;4480;52.370;9.748;2023-03-03T09:22:17;36.90;;;21.02;;
8887;SDS011;4480;52.370;9.748;2023-03-03T09:24:46;33.38;;;17.65;;
8887;SDS011;4480;52.370;9.748;2023-03-03T09:27:17;31.63;;;17.58;;
8887;SDS011;4480;52.370;9.748;2023-03-03T09:29:47;33.90;;;18.60;;
8887;SDS011;4480;52.370;9.748;2023-03-03T09:32:21;34.72;;;19.80;;
8887;SDS011;4480;52.370;9.748;2023-03-03T09:34:55;35.28;;;19.83;;
8887;SDS011;4480;52.370;9.748;2023-03-03T09:37:22;39.50;;;22.10;;
8887;SDS011;4480;52.370;9.748;2023-03-03T09:39:52;35.50;;;19.80;;
8887;SDS011;4480;52.370;9.748;2023-03-03T09:42:46;36.38;;;21.73;;
8887;SDS011;4480;52.370;9.748;2023-03-03T09:45:34;35.85;;;19.13;;
8887;SDS011;4480;52.370;9.748;2023-03-03T09:51:12;35.85;;;20.45;;
8887;SDS011;4480;52.370;9.748;2023-03-03T09:53:52;35.75;;;19.23;;
8887;SDS011;4480;52.370;9.748;2023-03-03T09:56:37;36.50;;;17.65;;
8887;SDS011;4480;52.370;9.748;2023-03-03T09:59:11;35.22;;;18.05;;
8887;SDS011;4480;52.370;9.748;2023-03-03T10:01:56;34.25;;;17.55;;
8887;SDS011;4480;52.370;9.748;2023-03-03T10:04:38;31.58;;;15.40;;
8887;SDS011;4480;52.370;9.748;2023-03-03T10:07:21;31.65;;;17.05;;
8887;SDS011;4480;52.370;9.748;2023-03-03T10:09:59;29.55;;;16.08;;
8887;SDS011;4480;52.370;9.748;2023-03-03T10:12:42;35.50;;;17.90;;
8887;SDS011;4480;52.370;9.748;2023-03-03T10:15:29;32.45;;;17.00;;
8887;SDS011;4480;52.370;9.748;2023-03-03T10:18:16;38.30;;;18.17;;
8887;SDS011;4480;52.370;9.748;2023-03-03T10:20:54;32.08;;;18.63;;
8887;SDS011;4480;52.370;9.748;2023-03-03T10:23:37;29.10;;;16.48;;
8887;SDS011;4480;52.370;9.748;2023-03-03T10:26:20;31.65;;;17.23;;
8887;SDS011;4480;52.370;9.748;2023-03-03T10:29:07;30.10;;;16.33;;
8887;SDS011;4480;52.370;9.748;2023-03-03T10:31:50;30.48;;;16.75;;
8887;SDS011;4480;52.370;9.748;2023-03-03T10:37:45;42.25;;;20.25;;
8887;SDS011;4480;52.370;9.748;2023-03-03T10:40:19;35.00;;;20.25;;
8887;SDS011;4480;52.370;9.748;2023-03-03T10:43:01;33.50;;;16.85;;
8887;SDS011;4480;52.370;9.748;2023-03-03T10:45:44;31.40;;;18.52;;
8887;SDS011;4480;52.370;9.748;2023-03-03T10:51:33;31.70;;;17.88;;
8887;SDS011;4480;52.370;9.748;2023-03-03T10:54:11;28.08;;;15.23;;
8887;SDS011;4480;52.370;9.748;2023-03-03T10:56:49;34.83;;;18.65;;
8887;SDS011;4480;52.370;9.748;2023-03-03T10:59:28;32.33;;;18.20;;
8887;SDS011;4480;52.370;9.748;2023-03-03T11:02:10;37.40;;;19.77;;
8887;SDS011;4480;52.370;9.748;2023-03-03T11:04:45;31.42;;;17.95;;
8887;SDS011;4480;52.370;9.748;2023-03-03T11:07:20;37.08;;;20.48;;
8887;SDS011;4480;52.370;9.748;2023-03-03T11:09:55;31.90;;;17.25;;
8887;SDS011;4480;52.370;9.748;2023-03-03T11:12:31;31.77;;;17.95;;
8887;SDS011;4480;52.370;9.748;2023-03-03T11:15:21;27.17;;;14.38;;
8887;SDS011;4480;52.370;9.748;2023-03-03T11:18:02;23.80;;;13.48;;
8887;SDS011;4480;52.370;9.748;2023-03-03T11:20:41;23.67;;;15.60;;
8887;SDS011;4480;52.370;9.748;2023-03-03T11:23:25;26.67;;;13.57;;
8887;SDS011;4480;52.370;9.748;2023-03-03T11:26:13;23.90;;;12.55;;
8887;SDS011;4480;52.370;9.748;2023-03-03T11:28:52;22.30;;;12.55;;
8887;SDS011;4480;52.370;9.748;2023-03-03T11:31:27;23.60;;;13.00;;
8887;SDS011;4480;52.370;9.748;2023-03-03T11:34:05;22.60;;;12.38;;
8887;SDS011;4480;52.370;9.748;2023-03-03T11:36:43;26.25;;;13.32;;
8887;SDS011;4480;52.370;9.748;2023-03-03T11:39:15;27.67;;;16.42;;
8887;SDS011;4480;52.370;9.748;2023-03-03T11:41:47;31.73;;;16.60;;
8887;SDS011;4480;52.370;9.748;2023-03-03T11:44:26;28.80;;;16.00;;
8887;SDS011;4480;52.370;9.748;2023-03-03T11:46:57;27.92;;;14.20;;
8887;SDS011;4480;52.370;9.748;2023-03-03T11:49:30;26.98;;;16.40;;
8887;SDS011;4480;52.370;9.748;2023-03-03T11:52:07;25.65;;;14.63;;
8887;SDS011;4480;52.370;9.748;2023-03-03T11:54:47;27.58;;;16.38;;
8887;SDS011;4480;52.370;9.748;2023-03-03T11:57:18;32.60;;;16.60;;
8887;SDS011;4480;52.370;9.748;2023-03-03T11:59:55;33.20;;;17.40;;
8887;SDS011;4480;52.370;9.748;2023-03-03T12:02:33;30.13;;;16.20;;
8887;SDS011;4480;52.370;9.748;2023-03-03T12:05:26;32.55;;;15.88;;
8887;SDS011;4480;52.370;9.748;2023-03-03T12:08:06;31.33;;;16.35;;
8887;SDS011;4480;52.370;9.748;2023-03-03T12:10:40;29.25;;;15.80;;
8887;SDS011;4480;52.370;9.748;2023-03-03T12:13:16;38.13;;;17.67;;
8887;SDS011;4480;52.370;9.748;2023-03-03T12:15:48;26.88;;;14.20;;
8887;SDS011;4480;52.370;9.748;2023-03-03T12:21:22;33.92;;;16.00;;
8887;SDS011;4480;52.370;9.748;2023-03-03T12:24:06;32.20;;;15.25;;
8887;SDS011;4480;52.370;9.748;2023-03-03T12:26:43;28.55;;;14.50;;
8887;SDS011;4480;52.370;9.748;2023-03-03T12:29:20;28.55;;;15.18;;
8887;SDS011;4480;52.370;9.748;2023-03-03T12:31:53;28.55;;;14.75;;
8887;SDS011;4480;52.370;9.748;2023-03-03T12:34:29;33.42;;;16.42;;
8887;SDS011;4480;52.370;9.748;2023-03-03T12:37:22;25.67;;;13.55;;
8887;SDS011;4480;52.370;9.748;2023-03-03T12:40:08;29.02;;;14.60;;
8887;SDS011;4480;52.370;9.748;2023-03-03T12:42:41;34.30;;;15.65;;
8887;SDS011;4480;52.370;9.748;2023-03-03T12:45:28;27.70;;;14.57;;
8887;SDS011;4480;52.370;9.748;2023-03-03T12:48:06;30.60;;;15.80;;
8887;SDS011;4480;52.370;9.748;2023-03-03T12:50:40;29.23;;;15.35;;
8887;SDS011;4480;52.370;9.748;2023-03-03T12:53:23;30.38;;;15.70;;
8887;SDS011;4480;52.370;9.748;2023-03-03T12:56:02;34.15;;;16.02;;
8887;SDS011;4480;52.370;9.748;2023-03-03T12:58:36;33.38;;;14.75;;
8887;SDS011;4480;52.370;9.748;2023-03-03T13:01:18;27.25;;;15.10;;
8887;SDS011;4480;52.370;9.748;2023-03-03T13:03:57;28.33;;;14.43;;
8887;SDS011;4480;52.370;9.748;2023-03-03T13:06:34;26.35;;;14.52;;
8887;SDS011;4480;52.370;9.748;2023-03-03T13:12:12;27.02;;;14.48;;
8887;SDS011;4480;52.370;9.748;2023-03-03T13:14:56;28.17;;;13.55;;
8887;SDS011;4480;52.370;9.748;2023-03-03T13:17:30;26.48;;;14.45;;
8887;SDS011;4480;52.370;9.748;2023-03-03T13:20:00;26.38;;;14.88;;
8887;SDS011;4480;52.370;9.748;2023-03-03T13:22:31;28.48;;;15.25;;
8887;SDS011;4480;52.370;9.748;2023-03-03T13:25:04;32.05;;;14.93;;
8887;SDS011;4480;52.370;9.748;2023-03-03T13:27:38;29.27;;;14.23;;
8887;SDS011;4480;52.370;9.748;2023-03-03T13:30:13;29.33;;;14.32;;
8887;SDS011;4480;52.370;9.748;2023-03-03T13:32:43;26.88;;;15.10;;
8887;SDS011;4480;52.370;9.748;2023-03-03T13:35:17;27.92;;;14.45;;
8887;SDS011;4480;52.370;9.748;2023-03-03T13:37:57;30.15;;;13.88;;
8887;SDS011;4480;52.370;9.748;2023-03-03T13:40:27;29.27;;;11.88;;
8887;SDS011;4480;52.370;9.748;2023-03-03T13:43:09;26.83;;;14.60;;
8887;SDS011;4480;52.370;9.748;2023-03-03T13:45:45;33.50;;;16.35;;
8887;SDS011;4480;52.370;9.748;2023-03-03T13:48:23;32.38;;;15.13;;
8887;SDS011;4480;52.370;9.748;2023-03-03T13:51:03;31.42;;;15.95;;
8887;SDS011;4480;52.370;9.748;2023-03-03T13:53:41;25.25;;;14.10;;
8887;SDS011;4480;52.370;9.748;2023-03-03T13:56:21;27.50;;;14.43;;
8887;SDS011;4480;52.370;9.748;2023-03-03T13:59:03;32.80;;;14.60;;
8887;SDS011;4480;52.370;9.748;2023-03-03T14:01:42;26.45;;;14.48;;
8887;SDS011;4480;52.370;9.748;2023-03-03T14:04:17;29.35;;;15.07;;
8887;SDS011;4480;52.370;9.748;2023-03-03T14:06:56;33.10;;;16.35;;
8887;SDS011;4480;52.370;9.748;2023-03-03T14:09:33;27.60;;;13.57;;
8887;SDS011;4480;52.370;9.748;2023-03-03T14:12:14;27.25;;;14.73;;
8887;SDS011;4480;52.370;9.748;2023-03-03T14:14:50;31.40;;;15.95;;
8887;SDS011;4480;52.370;9.748;2023-03-03T14:17:26;29.55;;;14.02;;
8887;SDS011;4480;52.370;9.748;2023-03-03T14:20:02;28.75;;;14.20;;
8887;SDS011;4480;52.370;9.748;2023-03-03T14:22:41;28.75;;;14.85;;
8887;SDS011;4480;52.370;9.748;2023-03-03T14:25:14;26.20;;;12.07;;
8887;SDS011;4480;52.370;9.748;2023-03-03T14:27:53;22.30;;;12.70;;
8887;SDS011;4480;52.370;9.748;2023-03-03T14:30:32;23.58;;;12.65;;
8887;SDS011;4480;52.370;9.748;2023-03-03T14:33:13;31.52;;;14.57;;
8887;SDS011;4480;52.370;9.748;2023-03-03T14:35:47;32.47;;;15.63;;
8887;SDS011;4480;52.370;9.748;2023-03-03T14:38:17;30.05;;;13.98;;
8887;SDS011;4480;52.370;9.748;2023-03-03T14:40:47;30.50;;;14.32;;
8887;SDS011;4480;52.370;9.748;2023-03-03T14:43:24;23.35;;;13.25;;
8887;SDS011;4480;52.370;9.748;2023-03-03T14:45:53;28.67;;;15.80;;
8887;SDS011;4480;52.370;9.748;2023-03-03T14:48:21;30.48;;;13.25;;
8887;SDS011;4480;52.370;9.748;2023-03-03T14:50:50;26.90;;;13.63;;
8887;SDS011;4480;52.370;9.748;2023-03-03T14:53:22;21.75;;;12.50;;
8887;SDS011;4480;52.370;9.748;2023-03-03T14:56:13;25.48;;;13.25;;
8887;SDS011;4480;52.370;9.748;2023-03-03T14:58:42;25.83;;;12.50;;
8887;SDS011;4480;52.370;9.748;2023-03-03T15:01:14;26.33;;;13.60;;
8887;SDS011;4480;52.370;9.748;2023-03-03T15:03:46;26.27;;;14.75;;
8887;SDS011;4480;52.370;9.748;2023-03-03T15:06:27;26.85;;;13.73;;
8887;SDS011;4480;52.370;9.748;2023-03-03T15:08:56;27.85;;;15.60;;
8887;SDS011;4480;52.370;9.748;2023-03-03T15:11:43;32.65;;;16.20;;
8887;SDS011;4480;52.370;9.748;2023-03-03T15:14:11;32.88;;;16.50;;
8887;SDS011;4480;52.370;9.748;2023-03-03T15:16:43;34.38;;;17.23;;
8887;SDS011;4480;52.370;9.748;2023-03-03T15:19:24;36.67;;;16.35;;
8887;SDS011;4480;52.370;9.748;2023-03-03T15:22:07;40.22;;;19.92;;
8887;SDS011;4480;52.370;9.748;2023-03-03T15:24:44;37.03;;;17.83;;
8887;SDS011;4480;52.370;9.748;2023-03-03T15:27:18;40.67;;;20.48;;
8887;SDS011;4480;52.370;9.748;2023-03-03T15:29:54;33.53;;;19.25;;
8887;SDS011;4480;52.370;9.748;2023-03-03T15:32:40;47.03;;;21.40;;
8887;SDS011;4480;52.370;9.748;2023-03-03T15:35:15;37.63;;;20.40;;
8887;SDS011;4480;52.370;9.748;2023-03-03T15:37:51;40.13;;;21.85;;
8887;SDS011;4480;52.370;9.748;2023-03-03T15:40:25;46.33;;;22.25;;
8887;SDS011;4480;52.370;9.748;2023-03-03T15:42:56;46.47;;;23.58;;